Etusivu
METAR-TAF:

METAR-TAF

Lentoasemat :

Nakashibetsu, Japani

Leveyspiiri: 43-34N, Pituuspiiri: 144-58E, korkeus merenpinnasta: 66 m

Tämänhetkinen sää

Tämä raportti tehtiin 1 tunti ja 7 minuuttia sitten, kello 08.00 UTC
Tuuli 7 kn koillisesta
Lämpötila -1°C
Kosteus 64%
Ilmanpaine 1025 hPa
Näkyvyys 10 km tai enemmän
Muutamia pilviä 1500 ft:n korkeudessa
Hajonneita pilviä 3500 ft:n korkeudessa

METAR: RJCN 200800Z 05007KT 9999 FEW015 BKN035 M01/M07 Q1025

Aika: 18:07 (09:07 UTC)


TAF: puuttuu

Säähavainnot ja -ennusteet yli 4000 lentoasemalta (METAR- ja TAF-raportit).

Käytössä olevat sääasemat on merkitty karttaan keltaisilla ja punaisilla pisteillä.

Aseta hiiri pisteen päälle nähdäksesi sääaseman nimen.

Klikkaa sitten nähdäksesi säähavainnot ja -ennusteet.

Kartan vaihtaminen: klikkaa mustalla rastilla varustettuja vihreitä pisteitä, niin voit zoomata sisään; viivalla varustettua vihreää pistettä, niin voit zoomata ulos tai vihreitä nuolia, niin pääset viereisille kartoille.


METAR-TAF: